Time;durP1;ratioP1;P1;durP2;ratioP2;P2;SDS_P1;SDS_P2;PMS_P1;PMS_P2;Temp;Humidity;BMP_temperature;BMP_pressure;BME280_temperature;BME280_humidity;BME280_pressure;Samples;Min_cycle;Max_cycle;Signal;HPM_P1;HPM_P2
2022/02/26 00:02:51;;;;;;;7.30;4.12;;;;;;;3.79;100.00;101241.42;5121449;55;1136637;-71
2022/02/26 00:07:57;;;;;;;10.73;4.77;;;;;;;3.77;100.00;101254.55;4975296;57;1136585;-70
2022/02/26 00:13:02;;;;;;;7.20;3.77;;;;;;;3.78;100.00;101260.64;4970606;57;1138849;-71
2022/02/26 00:18:08;;;;;;;10.57;4.30;;;;;;;3.77;100.00;101266.33;4989982;58;1136638;-70
2022/02/26 00:23:14;;;;;;;8.47;3.73;;;;;;;3.76;100.00;101279.46;4970588;58;1138826;-70
2022/02/26 00:28:20;;;;;;;9.83;4.45;;;;;;;3.71;100.00;101284.00;4970452;57;1136868;-70
2022/02/26 00:33:28;;;;;;;8.88;4.03;;;;;;;3.69;100.00;101294.52;4970847;58;1136690;-70
2022/02/26 00:38:34;;;;;;;6.53;4.17;;;;;;;3.68;100.00;101294.57;4970539;58;1136771;-70
2022/02/26 00:43:39;;;;;;;7.33;4.27;;;;;;;3.65;100.00;101296.88;4970810;58;1136722;-70
2022/02/26 00:54:07;;;;;;;8.30;4.17;;;;;;;3.61;100.00;101308.34;4767971;58;1138848;-70
2022/02/26 00:59:13;;;;;;;10.93;5.03;;;;;;;3.58;100.00;101329.83;4970153;58;1136970;-70
2022/02/26 01:04:19;;;;;;;11.37;4.77;;;;;;;3.56;100.00;101335.56;4970350;58;1139066;-70
2022/02/26 01:09:25;;;;;;;9.73;3.83;;;;;;;3.57;100.00;101352.97;4906082;57;1138987;-71
2022/02/26 01:14:31;;;;;;;13.17;4.93;;;;;;;3.59;100.00;101356.38;4895386;58;1137105;-70
2022/02/26 01:19:38;;;;;;;10.77;3.60;;;;;;;3.57;100.00;101368.20;4907483;57;1138912;-73
2022/02/26 01:24:44;;;;;;;9.33;4.45;;;;;;;3.56;100.00;101369.56;5034172;57;1138923;-70
2022/02/26 01:29:50;;;;;;;6.40;3.75;;;;;;;3.58;100.00;101379.07;4959116;57;1136677;-71
2022/02/26 01:34:56;;;;;;;6.17;3.70;;;;;;;3.58;100.00;101386.06;4935670;57;1136734;-70
2022/02/26 01:40:02;;;;;;;9.07;4.27;;;;;;;3.54;100.00;101397.08;4888346;57;1136884;-71
2022/02/26 01:45:17;;;;;;;8.60;4.47;;;;;;;3.44;100.00;101398.31;4918380;57;1136920;-71
2022/02/26 01:50:23;;;;;;;8.20;3.77;;;;;;;3.31;100.00;101403.55;4942197;57;1136760;-70
2022/02/26 01:55:29;;;;;;;16.77;5.83;;;;;;;3.23;100.00;101400.33;4972468;57;1137146;-71
2022/02/26 02:00:35;;;;;;;10.53;5.50;;;;;;;3.20;100.00;101406.53;4979139;57;1138962;-70
2022/02/26 02:05:43;;;;;;;10.57;5.47;;;;;;;3.17;100.00;101415.33;4993937;57;1138926;-70
2022/02/26 02:10:52;;;;;;;9.25;4.90;;;;;;;3.13;100.00;101406.31;4974904;57;1138794;-70
2022/02/26 02:15:58;;;;;;;10.00;4.58;;;;;;;3.12;100.00;101415.06;4993476;56;1136993;-70
2022/02/26 02:21:04;;;;;;;7.33;5.03;;;;;;;3.13;100.00;101417.63;4973399;57;1138936;-70
2022/02/26 02:26:10;;;;;;;14.07;4.70;;;;;;;3.18;100.00;101422.27;4990168;57;1136740;-71
2022/02/26 02:31:19;;;;;;;7.93;4.77;;;;;;;3.22;100.00;101424.30;4970724;57;1138806;-70
2022/02/26 02:36:25;;;;;;;30.40;10.53;;;;;;;3.28;100.00;101435.02;4951506;57;1136902;-70
2022/02/26 02:41:31;;;;;;;14.30;6.60;;;;;;;3.30;100.00;101440.61;4977690;57;1252570;-70
2022/02/26 02:46:37;;;;;;;11.43;5.67;;;;;;;3.29;100.00;101439.34;4949792;57;1138823;-71
2022/02/26 02:51:42;;;;;;;8.80;4.67;;;;;;;3.30;100.00;101437.14;4936270;57;1143478;-71
2022/02/26 02:56:49;;;;;;;11.37;6.80;;;;;;;3.30;100.00;101437.14;4946180;57;1136715;-71
2022/02/26 03:01:55;;;;;;;10.93;5.07;;;;;;;3.25;100.00;101436.42;4954059;57;1138883;-71
2022/02/26 03:07:00;;;;;;;13.17;4.67;;;;;;;3.27;100.00;101444.63;4885007;58;1138957;-71
2022/02/26 03:12:07;;;;;;;7.33;4.77;;;;;;;3.23;100.00;101439.08;4877586;59;1138892;-70
2022/02/26 03:17:13;;;;;;;11.60;4.93;;;;;;;3.23;100.00;101449.99;4908189;58;1136891;-70
2022/02/26 03:22:21;;;;;;;6.15;4.05;;;;;;;3.23;100.00;101457.38;4941130;57;1138784;-71
2022/02/26 03:27:26;;;;;;;7.80;5.07;;;;;;;3.24;100.00;101466.08;4962829;56;1136823;-71
2022/02/26 03:32:32;;;;;;;5.90;5.13;;;;;;;3.23;100.00;101469.14;4933746;56;1136686;-71
2022/02/26 03:37:39;;;;;;;8.53;5.43;;;;;;;3.25;100.00;101476.49;4969433;57;1136569;-72
2022/02/26 03:42:46;;;;;;;11.22;4.30;;;;;;;3.38;100.00;101494.80;4967432;57;1138749;-72
2022/02/26 03:47:51;;;;;;;9.45;4.60;;;;;;;3.37;100.00;101517.06;4982053;57;1138764;-71
2022/02/26 03:52:57;;;;;;;6.22;3.92;;;;;;;3.28;100.00;101526.07;4980669;57;1136920;-72
2022/02/26 03:58:03;;;;;;;7.10;4.20;;;;;;;3.22;100.00;101531.48;5055000;56;1136978;-71
2022/02/26 04:03:09;;;;;;;8.07;4.63;;;;;;;3.22;100.00;101538.46;4948220;57;1136820;-72
2022/02/26 04:08:15;;;;;;;10.03;5.03;;;;;;;3.18;100.00;101548.19;4907176;58;1136705;-71
2022/02/26 04:13:21;;;;;;;10.77;4.77;;;;;;;3.11;100.00;101546.64;5046685;55;1138710;-71
2022/02/26 04:18:27;;;;;;;15.10;5.17;;;;;;;3.16;100.00;101570.45;5047419;56;1139029;-72
2022/02/26 04:23:33;;;;;;;10.83;4.50;;;;;;;3.14;100.00;101572.25;5046895;56;1139183;-71
2022/02/26 04:28:38;;;;;;;13.47;5.30;;;;;;;3.18;100.00;101581.72;5046677;56;1138869;-72
2022/02/26 04:33:45;;;;;;;14.43;5.80;;;;;;;3.18;100.00;101584.33;5046866;56;1139000;-71
2022/02/26 04:38:51;;;;;;;11.07;5.33;;;;;;;3.17;100.00;101599.61;5046839;56;1138795;-71
2022/02/26 04:43:57;;;;;;;12.47;6.13;;;;;;;3.21;100.00;101599.03;5047117;56;1139045;-69
2022/02/26 04:49:02;;;;;;;13.47;6.17;;;;;;;3.23;100.00;101606.39;5073322;56;1178042;-70
2022/02/26 04:54:08;;;;;;;12.10;7.17;;;;;;;3.22;100.00;101620.36;5081135;56;1138882;-69
2022/02/26 04:59:14;;;;;;;16.57;7.80;;;;;;;3.25;100.00;101637.27;5081458;56;1138828;-69
2022/02/26 05:04:20;;;;;;;16.93;8.13;;;;;;;3.30;100.00;101643.23;5127347;54;1138971;-72
2022/02/26 05:09:26;;;;;;;19.00;7.57;;;;;;;3.30;100.00;101643.23;5105973;56;1141106;-72
2022/02/26 05:14:31;;;;;;;25.30;9.40;;;;;;;3.42;100.00;101657.69;5107198;56;1141300;-71
2022/02/26 05:19:37;;;;;;;26.83;9.73;;;;;;;3.51;100.00;101668.72;5106686;56;1139103;-72
2022/02/26 05:24:42;;;;;;;20.50;8.30;;;;;;;3.59;100.00;101672.42;5023414;56;1139262;-73
2022/02/26 05:29:48;;;;;;;17.10;8.93;;;;;;;3.56;100.00;101686.90;5116861;56;1138928;-72
2022/02/26 05:34:54;;;;;;;22.30;7.95;;;;;;;3.54;100.00;101699.16;5006745;57;1138807;-72
2022/02/26 05:40:00;;;;;;;15.68;7.05;;;;;;;3.48;100.00;101711.13;5028368;57;1138927;-72
2022/02/26 05:45:06;;;;;;;22.47;8.37;;;;;;;3.43;100.00;101721.72;5026658;56;1139060;-73
2022/02/26 05:50:13;;;;;;;20.03;10.53;;;;;;;3.37;100.00;101741.48;4950955;58;1139111;-72
2022/02/26 05:55:19;;;;;;;26.67;11.43;;;;;;;3.35;100.00;101747.69;5032499;57;1140891;-72
2022/02/26 06:00:25;;;;;;;26.37;12.47;;;;;;;3.32;100.00;101754.30;4946732;58;1141054;-73
2022/02/26 06:05:30;;;;;;;17.37;8.10;;;;;;;3.31;100.00;101756.52;5014113;57;1140936;-72
2022/02/26 06:10:37;;;;;;;11.27;6.40;;;;;;;3.33;100.00;101762.56;4951022;58;1141114;-73
2022/02/26 06:15:43;;;;;;;14.73;8.00;;;;;;;3.31;100.00;101770.89;4945375;57;1138829;-73
2022/02/26 06:20:49;;;;;;;12.30;6.53;;;;;;;3.29;100.00;101779.22;4981779;57;1138890;-72
2022/02/26 06:25:54;;;;;;;17.37;7.65;;;;;;;3.29;100.00;101784.00;5031726;57;1139112;-72
2022/02/26 06:31:00;;;;;;;159.97;78.43;;;;;;;3.32;100.00;101786.98;5023055;57;1141108;-72
2022/02/26 06:36:06;;;;;;;23.73;13.80;;;;;;;3.32;100.00;101799.61;5021812;57;1143083;-73
2022/02/26 06:41:12;;;;;;;287.63;139.07;;;;;;;3.31;100.00;101807.05;4941003;58;1141052;-71
2022/02/26 06:46:18;;;;;;;78.90;40.60;;;;;;;3.34;100.00;101813.95;5020845;57;1145150;-71
2022/02/26 06:51:24;;;;;;;77.73;47.13;;;;;;;3.35;100.00;101827.44;5021321;57;1141108;-72
2022/02/26 06:56:30;;;;;;;29.05;15.45;;;;;;;3.36;100.00;101838.31;4947431;57;1141082;-72
2022/02/26 07:01:36;;;;;;;27.10;18.23;;;;;;;3.41;100.00;101855.58;5032219;57;1141001;-73
2022/02/26 07:06:48;;;;;;;17.83;9.57;;;;;;;3.49;100.00;101856.69;4959799;57;1141354;-72
2022/02/26 07:11:50;;;;;;;50.96;22.80;;;;;;;3.60;100.00;101865.55;4965943;56;1141048;-73
2022/02/26 07:16:56;;;;;;;20.87;9.87;;;;;;;3.77;100.00;101879.03;5023184;57;1140971;-72
2022/02/26 07:22:02;;;;;;;23.30;8.88;;;;;;;3.81;100.00;101888.07;5044622;56;1138871;-73
2022/02/26 07:27:07;;;;;;;18.63;8.77;;;;;;;3.86;100.00;101893.16;5014953;57;1141045;-73
2022/02/26 07:32:13;;;;;;;27.47;9.87;;;;;;;3.86;100.00;101898.39;5066049;56;1138883;-72
2022/02/26 07:37:23;;;;;;;21.57;8.97;;;;;;;3.86;100.00;101918.88;5061121;56;1139135;-71
2022/02/26 07:42:26;;;;;;;60.97;30.53;;;;;;;3.86;100.00;101928.03;5062289;56;1138825;-72
2022/02/26 07:47:34;;;;;;;37.40;16.27;;;;;;;3.92;100.00;101935.32;5067749;56;1143121;-72
2022/02/26 07:52:40;;;;;;;40.27;18.97;;;;;;;3.94;100.00;101950.53;5057506;56;1140936;-72
2022/02/26 07:57:46;;;;;;;36.53;17.63;;;;;;;4.15;100.00;101960.39;5022331;57;1140838;-73
2022/02/26 08:02:52;;;;;;;36.68;14.47;;;;;;;4.47;100.00;101969.51;5019103;57;1143215;-72
2022/02/26 08:07:58;;;;;;;22.80;8.88;;;;;;;4.88;100.00;101971.36;5023116;56;1254520;-71
2022/02/26 08:13:04;;;;;;;69.70;30.27;;;;;;;5.30;100.00;101979.17;5017287;57;1139071;-72
2022/02/26 08:18:10;;;;;;;45.87;21.73;;;;;;;5.60;100.00;101984.31;5069599;56;1140768;-71
2022/02/26 08:23:16;;;;;;;26.80;12.53;;;;;;;5.85;100.00;101995.69;5021864;56;1140944;-73
2022/02/26 08:28:22;;;;;;;19.13;5.93;;;;;;;6.06;100.00;101998.52;5024092;56;1141410;-72
2022/02/26 08:33:30;;;;;;;20.30;8.27;;;;;;;6.08;100.00;102007.20;4964928;57;1141132;-73
2022/02/26 08:38:35;;;;;;;25.87;10.03;;;;;;;6.33;100.00;102017.23;5029501;57;1140917;-73
2022/02/26 08:43:41;;;;;;;22.43;9.60;;;;;;;6.48;100.00;102021.94;5033038;57;1140908;-73
2022/02/26 08:48:47;;;;;;;15.37;5.07;;;;;;;6.68;100.00;102031.72;5013108;57;1140794;-71
2022/02/26 08:53:53;;;;;;;16.75;6.10;;;;;;;6.97;100.00;102038.51;5032705;57;1140976;-73
2022/02/26 08:58:59;;;;;;;50.16;31.06;;;;;;;7.16;100.00;102042.61;5032972;57;1138735;-73
2022/02/26 09:04:05;;;;;;;12.17;5.43;;;;;;;7.06;100.00;102048.66;5060787;56;1143226;-72
2022/02/26 09:09:11;;;;;;;19.63;8.90;;;;;;;6.95;100.00;102057.44;5076471;56;1138826;-73
2022/02/26 09:14:17;;;;;;;17.53;4.40;;;;;;;6.74;100.00;102070.05;5127283;55;1138908;-73
2022/02/26 09:19:22;;;;;;;22.57;7.03;;;;;;;6.60;100.00;102077.14;5107882;55;1141004;-72
2022/02/26 09:24:28;;;;;;;22.00;7.50;;;;;;;6.58;100.00;102084.22;5013017;57;1138944;-72
2022/02/26 09:29:35;;;;;;;11.40;3.52;;;;;;;6.67;100.00;102087.39;5062555;56;1138793;-73
2022/02/26 09:34:40;;;;;;;21.50;5.83;;;;;;;6.83;100.00;102095.58;5080026;56;1138671;-72
2022/02/26 09:39:47;;;;;;;9.38;3.50;;;;;;;6.87;100.00;102102.91;5047341;57;1142080;-74
2022/02/26 09:44:52;;;;;;;12.93;4.50;;;;;;;6.86;100.00;102116.97;5051109;56;1136623;-73
2022/02/26 09:49:58;;;;;;;10.80;2.77;;;;;;;6.79;100.00;102124.20;5035951;57;1138965;-72
2022/02/26 09:55:04;;;;;;;12.60;3.57;;;;;;;6.85;100.00;102125.77;5068087;56;1139023;-72
2022/02/26 10:00:11;;;;;;;15.50;6.57;;;;;;;6.87;100.00;102137.09;5118319;56;1141037;-72
2022/02/26 10:05:18;;;;;;;15.85;4.00;;;;;;;6.93;100.00;102136.39;5109208;55;1139109;-72
2022/02/26 10:10:28;;;;;;;10.23;4.20;;;;;;;7.00;100.00;102143.16;4902468;57;1138788;-72
2022/02/26 10:15:38;;;;;;;28.43;8.53;;;;;;;7.10;100.00;102150.70;4902533;57;1139136;-73
2022/02/26 10:20:56;;;;;;;12.63;4.30;;;;;;;7.19;100.00;102150.34;4923567;57;1141050;-72
2022/02/26 10:26:13;;;;;;;14.50;6.93;;;;;;;7.27;100.00;102148.30;5034048;57;1141028;-72
2022/02/26 10:31:19;;;;;;;65.13;24.40;;;;;;;7.31;100.00;102159.98;5023743;57;1138817;-73
2022/02/26 10:36:25;;;;;;;130.13;35.07;;;;;;;7.26;99.49;102155.79;4894434;58;1140819;-72
2022/02/26 10:41:31;;;;;;;26.47;9.57;;;;;;;7.25;97.50;102160.20;4968243;58;1143157;-72
2022/02/26 10:46:37;;;;;;;26.93;11.13;;;;;;;7.18;98.44;102167.91;4973779;57;1138712;-72
2022/02/26 10:51:45;;;;;;;50.73;19.63;;;;;;;7.11;97.32;102171.70;4973769;57;1138867;-73
2022/02/26 10:56:52;;;;;;;35.23;11.30;;;;;;;7.12;97.88;102178.67;4968977;58;1139151;-72
2022/02/26 11:02:08;;;;;;;26.77;11.20;;;;;;;7.03;96.64;102178.99;4962961;58;1139501;-72
2022/02/26 11:07:15;;;;;;;40.90;19.13;;;;;;;7.07;96.51;102184.55;4959936;58;1141100;-72
2022/02/26 11:12:27;;;;;;;13.43;5.47;;;;;;;7.09;96.03;102188.45;5007983;57;1141187;-73
2022/02/26 11:17:32;;;;;;;28.30;5.00;;;;;;;7.09;95.62;102185.36;4960560;58;1136805;-72
2022/02/26 11:22:38;;;;;;;6.97;3.30;;;;;;;7.11;95.25;102186.62;4930738;58;1136804;-73
2022/02/26 11:27:44;;;;;;;8.27;4.07;;;;;;;7.07;95.31;102185.86;4960875;58;1134995;-73
2022/02/26 11:32:51;;;;;;;9.13;4.07;;;;;;;7.16;93.60;102193.90;4961109;58;1136978;-74
2022/02/26 11:38:03;;;;;;;19.50;6.53;;;;;;;7.19;94.17;102201.20;4972969;57;1136829;-73
2022/02/26 11:43:08;;;;;;;10.00;4.13;;;;;;;7.22;94.86;102195.83;5025270;56;1136874;-74
2022/02/26 11:48:14;;;;;;;14.43;3.67;;;;;;;7.33;94.01;102200.72;5050359;57;1137195;-73
2022/02/26 11:53:22;;;;;;;9.80;3.27;;;;;;;7.35;93.17;102193.14;5020598;57;1136613;-75
2022/02/26 11:58:34;;;;;;;10.53;4.03;;;;;;;7.36;93.20;102194.86;5051359;57;1134730;-73
2022/02/26 12:03:49;;;;;;;7.80;2.83;;;;;;;7.32;89.49;102206.89;5017887;57;1136743;-73
2022/02/26 12:09:01;;;;;;;15.80;4.57;;;;;;;7.24;89.85;102209.79;4969939;58;1134757;-72
2022/02/26 12:14:20;;;;;;;11.33;4.00;;;;;;;7.23;89.86;102209.84;4969250;58;1136756;-73
2022/02/26 12:19:30;;;;;;;24.13;8.93;;;;;;;7.22;90.01;102218.66;4990695;57;1136677;-72
2022/02/26 12:24:48;;;;;;;19.23;5.47;;;;;;;7.27;90.09;102216.72;4966374;58;1138917;-73
2022/02/26 12:29:55;;;;;;;30.03;7.17;;;;;;;7.29;90.13;102222.80;4968435;57;1138900;-73
2022/02/26 12:35:08;;;;;;;8.90;3.27;;;;;;;7.27;90.36;102222.84;5120012;56;1136978;-73
2022/02/26 12:40:22;;;;;;;11.00;4.17;;;;;;;7.21;89.98;102234.89;5066307;56;1134562;-72
2022/02/26 12:45:28;;;;;;;;;;;;;;;7.08;89.16;102227.05;5060036;56;1136864;-72
2022/02/26 12:50:35;;;;;;;20.73;7.07;;;;;;;7.02;90.72;102236.49;5088331;55;972011;-72
2022/02/26 12:55:41;;;;;;;31.87;10.30;;;;;;;7.02;90.55;102239.13;5052322;55;1134723;-72
2022/02/26 13:00:49;;;;;;;28.13;11.77;;;;;;;6.98;90.07;102237.05;4971153;57;1138957;-73
2022/02/26 13:06:04;;;;;;;20.85;8.48;;;;;;;6.99;89.24;102240.54;4942202;58;1138809;-72
2022/02/26 13:11:12;;;;;;;18.73;10.97;;;;;;;7.07;88.29;102245.06;4954982;57;1139101;-72
2022/02/26 13:16:22;;;;;;;15.07;6.70;;;;;;;7.13;86.15;102242.68;4989733;57;1138919;-72
2022/02/26 13:21:38;;;;;;;19.40;14.57;;;;;;;7.18;85.34;102240.27;4966551;57;1136715;-72
2022/02/26 13:26:43;;;;;;;70.65;52.20;;;;;;;7.15;80.51;102232.97;4994087;56;1138965;-72
2022/02/26 13:31:52;;;;;;;34.27;20.52;;;;;;;7.10;82.46;102241.02;4979211;57;1138730;-74
2022/02/26 13:36:58;;;;;;;105.43;35.80;;;;;;;7.19;81.87;102245.07;4984279;57;1139051;-73
2022/02/26 13:42:05;;;;;;;89.27;21.60;;;;;;;7.45;82.28;102248.09;4971942;57;1140868;-73
2022/02/26 13:47:14;;;;;;;177.73;70.57;;;;;;;7.75;82.02;102248.25;5027193;57;1139129;-73
2022/02/26 13:52:20;;;;;;;26.37;9.93;;;;;;;7.89;79.02;102252.53;4967073;57;1141184;-72
2022/02/26 13:57:33;;;;;;;10.50;3.30;;;;;;;7.92;78.77;102258.14;4945995;57;1136884;-73
2022/02/26 14:02:42;;;;;;;12.78;3.90;;;;;;;7.79;81.19;102275.34;4953154;58;1136865;-72
2022/02/26 14:07:48;;;;;;;26.63;10.87;;;;;;;7.79;81.19;102275.34;5086690;57;1136778;-73
2022/02/26 14:12:58;;;;;;;25.50;8.80;;;;;;;7.72;80.86;102280.83;5085961;57;1138898;-73
2022/02/26 14:18:04;;;;;;;27.00;8.78;;;;;;;7.64;80.66;102285.96;5085931;56;1136815;-72
2022/02/26 14:23:12;;;;;;;34.77;14.83;;;;;;;7.52;80.76;102293.00;5085066;56;1136952;-72
2022/02/26 14:28:24;;;;;;;16.60;7.40;;;;;;;7.49;81.77;102299.69;5088338;56;1138739;-72
2022/02/26 14:33:29;;;;;;;13.23;4.93;;;;;;;7.47;81.83;102298.91;5088402;56;1137046;-72
2022/02/26 14:38:35;;;;;;;8.87;3.90;;;;;;;7.44;81.93;102301.66;5075029;56;1136789;-72
2022/02/26 14:43:41;;;;;;;12.75;4.45;;;;;;;7.36;82.09;102310.67;5025552;57;1134788;-72
2022/02/26 14:48:46;;;;;;;57.80;21.47;;;;;;;7.34;82.50;102316.44;4971136;57;1136718;-73
2022/02/26 14:53:53;;;;;;;60.38;21.90;;;;;;;7.33;83.05;102316.52;4961508;57;1139030;-74
2022/02/26 14:58:59;;;;;;;57.18;24.40;;;;;;;7.32;83.19;102322.70;4951850;57;1139139;-73
2022/02/26 15:04:06;;;;;;;64.45;24.07;;;;;;;7.27;83.20;102306.20;4968585;57;1139076;-73
2022/02/26 15:09:12;;;;;;;52.23;20.53;;;;;;;7.29;83.73;102312.27;4962757;57;1138902;-73
2022/02/26 15:14:18;;;;;;;71.63;27.23;;;;;;;7.27;83.41;102324.63;4964207;57;1138809;-73
2022/02/26 15:19:23;;;;;;;91.90;33.93;;;;;;;7.25;83.29;102344.87;4993860;57;1138841;-74
2022/02/26 15:24:29;;;;;;;59.00;21.30;;;;;;;7.21;83.75;102339.30;4978063;57;1138886;-75
2022/02/26 15:29:36;;;;;;;95.43;33.80;;;;;;;7.22;84.29;102337.93;4991387;57;1138827;-76
2022/02/26 15:34:42;;;;;;;100.63;36.10;;;;;;;7.21;84.20;102347.19;4985226;57;1138655;-76
2022/02/26 15:39:47;;;;;;;133.70;56.63;;;;;;;7.17;84.27;102349.09;4991172;57;1140772;-75
2022/02/26 15:44:54;;;;;;;57.00;21.66;;;;;;;7.17;84.47;102355.67;4963526;57;1141035;-75
2022/02/26 15:49:59;;;;;;;57.30;21.95;;;;;;;7.18;84.27;102365.74;4946902;57;1138825;-74
2022/02/26 15:55:06;;;;;;;58.05;22.07;;;;;;;7.12;84.19;102372.06;4955766;57;1138881;-74
2022/02/26 16:00:12;;;;;;;62.13;23.67;;;;;;;7.13;84.94;102388.70;4946220;57;1139072;-74
2022/02/26 16:05:18;;;;;;;79.00;32.93;;;;;;;7.14;85.18;102384.71;4960243;57;1138737;-74
2022/02/26 16:10:24;;;;;;;149.83;61.83;;;;;;;7.15;85.10;102381.17;4933005;57;1138969;-76
2022/02/26 16:15:30;;;;;;;130.53;60.53;;;;;;;7.12;84.87;102387.84;4946451;56;1140862;-76
2022/02/26 16:20:36;;;;;;;89.47;34.60;;;;;;;7.13;85.25;102405.81;4983294;56;1141116;-77
2022/02/26 16:25:42;;;;;;;76.57;24.80;;;;;;;7.09;86.00;102405.05;4988269;57;1138681;-76
2022/02/26 16:30:48;;;;;;;103.87;31.93;;;;;;;7.06;86.33;102417.84;4980327;57;1138721;-76
2022/02/26 16:35:54;;;;;;;94.87;34.53;;;;;;;7.02;86.32;102422.81;4977881;57;1141026;-76
2022/02/26 16:41:00;;;;;;;105.35;40.30;;;;;;;6.96;86.58;102421.69;4971426;57;1138938;-77
2022/02/26 16:46:06;;;;;;;112.08;41.80;;;;;;;6.93;87.08;102420.92;4992440;57;1140771;-77
2022/02/26 16:51:12;;;;;;;97.05;35.90;;;;;;;6.90;87.44;102428.91;4945476;57;1140860;-77
2022/02/26 16:56:18;;;;;;;93.20;35.10;;;;;;;6.87;87.67;102434.28;4953254;57;1138877;-76
2022/02/26 17:01:23;;;;;;;96.47;35.43;;;;;;;6.87;87.89;102426.39;4923033;57;1138706;-75
2022/02/26 17:06:29;;;;;;;133.40;46.03;;;;;;;6.89;87.80;102435.07;4905181;58;1140828;-74
2022/02/26 17:11:34;;;;;;;123.70;47.20;;;;;;;6.94;88.37;102448.49;4916857;58;1143134;-77
2022/02/26 17:16:41;;;;;;;93.67;38.02;;;;;;;6.98;88.69;102456.70;4897870;58;1141035;-75
2022/02/26 17:21:46;;;;;;;119.30;40.48;;;;;;;6.98;88.68;102466.36;4935827;57;1138856;-76
2022/02/26 17:26:54;;;;;;;60.30;24.57;;;;;;;6.90;88.12;102471.84;4926406;58;1141164;-76
2022/02/26 17:32:00;;;;;;;24.43;11.43;;;;;;;6.63;88.02;102476.64;4970231;56;1138872;-75
2022/02/26 17:37:08;;;;;;;54.10;19.48;;;;;;;6.44;89.12;102497.34;4982194;57;1138862;-75
2022/02/26 17:42:14;;;;;;;33.30;13.55;;;;;;;6.26;89.67;102513.17;4933703;57;1139152;-75
2022/02/26 17:47:20;;;;;;;30.43;12.57;;;;;;;6.15;90.75;102505.19;4892362;58;1139080;-74
2022/02/26 17:52:26;;;;;;;39.50;14.70;;;;;;;6.05;91.29;102507.66;4981139;56;1140967;-75
2022/02/26 17:57:32;;;;;;;27.58;9.18;;;;;;;6.05;91.70;102520.80;4908362;58;1138988;-76
2022/02/26 18:02:38;;;;;;;29.77;12.83;;;;;;;6.05;92.11;102516.41;4916404;57;1137144;-75
2022/02/26 18:07:45;;;;;;;42.60;15.90;;;;;;;6.08;92.86;102520.27;4981706;57;1139307;-75
2022/02/26 18:12:51;;;;;;;42.60;17.80;;;;;;;6.13;92.91;102525.37;4980423;57;1138817;-76
2022/02/26 18:17:57;;;;;;;43.60;17.48;;;;;;;6.15;93.10;102528.83;4980973;57;1138806;-77
2022/02/26 18:23:04;;;;;;;63.53;25.53;;;;;;;6.17;93.23;102542.79;4981775;57;1138944;-75
2022/02/26 18:28:11;;;;;;;56.08;19.67;;;;;;;6.20;93.25;102542.27;4979756;57;1138890;-76
2022/02/26 18:33:19;;;;;;;71.37;24.13;;;;;;;6.20;92.96;102544.89;4980385;57;1141034;-76
2022/02/26 18:38:24;;;;;;;82.87;25.33;;;;;;;6.21;92.92;102543.98;4980305;57;1140895;-75
2022/02/26 18:43:30;;;;;;;37.87;16.07;;;;;;;6.21;93.35;102557.12;4980060;57;1139017;-76
2022/02/26 18:48:36;;;;;;;45.40;17.33;;;;;;;6.21;93.30;102561.52;4978784;57;1225521;-75
2022/02/26 18:53:41;;;;;;;27.20;12.77;;;;;;;6.12;93.36;102569.17;4980399;57;1138818;-76
2022/02/26 18:58:47;;;;;;;30.20;12.23;;;;;;;6.07;93.67;102571.53;4981380;57;1138796;-76
2022/02/26 19:03:53;;;;;;;28.27;13.37;;;;;;;5.97;93.63;102574.83;4943994;57;1138866;-75
2022/02/26 19:08:59;;;;;;;26.10;10.67;;;;;;;5.89;93.59;102571.10;4960449;57;1138975;-76
2022/02/26 19:14:06;;;;;;;23.67;9.38;;;;;;;5.81;93.73;102566.44;5013328;56;1138809;-76
2022/02/26 19:19:11;;;;;;;22.30;10.10;;;;;;;5.80;93.69;102569.13;4939432;57;1136830;-75
2022/02/26 19:24:17;;;;;;;45.10;18.30;;;;;;;5.72;93.50;102568.00;4949830;56;1140967;-75
2022/02/26 19:29:23;;;;;;;109.33;40.37;;;;;;;5.75;94.30;102574.49;4951132;57;1140915;-76
2022/02/26 19:34:29;;;;;;;112.77;44.73;;;;;;;5.78;94.56;102578.36;4972120;57;1141248;-75
2022/02/26 19:39:35;;;;;;;78.37;28.93;;;;;;;5.77;94.60;102576.63;4942086;57;1140958;-76
2022/02/26 19:44:42;;;;;;;77.63;31.30;;;;;;;5.68;94.17;102580.78;4938110;57;1138949;-72
2022/02/26 19:49:47;;;;;;;82.53;29.80;;;;;;;5.60;94.41;102590.61;4981332;56;1138973;-75
2022/02/26 19:54:53;;;;;;;74.27;30.77;;;;;;;5.55;94.52;102599.03;5011445;56;1138935;-74
2022/02/26 19:59:58;;;;;;;68.03;28.07;;;;;;;5.48;94.46;102598.78;5002114;57;1138861;-73
2022/02/26 20:05:05;;;;;;;61.47;23.70;;;;;;;5.42;94.61;102593.21;5077563;56;1138798;-75
2022/02/26 20:10:11;;;;;;;61.50;23.77;;;;;;;5.41;94.62;102599.80;5056368;55;1139117;-70
2022/02/26 20:15:17;;;;;;;123.17;41.93;;;;;;;5.41;94.52;102612.48;5109075;55;1141223;-70
2022/02/26 20:20:23;;;;;;;140.30;56.73;;;;;;;5.36;94.45;102615.64;5139319;55;1141299;-75
2022/02/26 20:25:30;;;;;;;120.07;51.40;;;;;;;5.36;94.45;102615.64;5135849;55;1141039;-70
2022/02/26 20:30:36;;;;;;;148.27;56.63;;;;;;;5.32;94.75;102626.27;5104299;55;1140985;-71
2022/02/26 20:35:42;;;;;;;118.53;43.70;;;;;;;5.25;94.74;102640.81;5072800;56;1141035;-73
2022/02/26 20:40:48;;;;;;;88.30;34.87;;;;;;;5.15;94.65;102651.10;5111411;56;1140949;-73
2022/02/26 20:45:54;;;;;;;77.27;33.97;;;;;;;5.00;94.57;102659.28;5111367;56;1138866;-72
2022/02/26 20:51:00;;;;;;;62.90;26.17;;;;;;;4.90;95.08;102656.41;5110690;56;1138910;-71
2022/02/26 20:56:06;;;;;;;62.67;27.62;;;;;;;4.85;95.28;102666.14;5116320;55;1138961;-71
2022/02/26 21:01:12;;;;;;;99.55;42.85;;;;;;;4.82;95.54;102671.44;5103597;55;1140984;-70
2022/02/26 21:06:18;;;;;;;117.90;48.98;;;;;;;4.78;95.86;102676.31;5101922;56;1141041;-69
2022/02/26 21:11:24;;;;;;;100.63;39.57;;;;;;;4.80;96.55;102678.47;5110241;55;1140856;-72
2022/02/26 21:16:29;;;;;;;117.37;41.40;;;;;;;4.75;96.50;102683.79;5103796;55;1140922;-71
2022/02/26 21:21:35;;;;;;;70.40;25.30;;;;;;;4.71;96.70;102690.45;5100818;56;1140977;-70
2022/02/26 21:26:41;;;;;;;63.63;21.90;;;;;;;4.59;96.62;102691.06;5054095;55;1138971;-73
2022/02/26 21:31:47;;;;;;;47.65;17.52;;;;;;;4.49;96.72;102699.99;5053407;55;1138720;-70
2022/02/26 21:36:53;;;;;;;49.67;20.67;;;;;;;4.51;96.95;102706.52;4983292;57;1138758;-74
2022/02/26 21:41:58;;;;;;;71.27;26.20;;;;;;;4.59;97.38;102712.48;5100984;55;1140682;-75
2022/02/26 21:47:05;;;;;;;68.97;28.02;;;;;;;4.63;97.24;102723.78;5116650;55;1138751;-73
2022/02/26 21:52:10;;;;;;;64.67;28.80;;;;;;;4.53;96.89;102716.09;5104579;55;1138726;-75
2022/02/26 21:57:16;;;;;;;64.67;26.93;;;;;;;4.47;97.04;102723.18;5082314;55;1138781;-72
2022/02/26 22:02:22;;;;;;;57.60;25.10;;;;;;;4.38;96.96;102723.34;5103570;55;1138924;-71
2022/02/26 22:07:28;;;;;;;48.37;19.10;;;;;;;4.24;96.65;102730.12;5142130;55;1138626;-71
2022/02/26 22:12:34;;;;;;;42.67;17.03;;;;;;;4.03;96.40;102730.45;5137296;55;1138842;-70
2022/02/26 22:17:41;;;;;;;44.87;19.27;;;;;;;3.94;96.40;102739.31;5084931;55;1138953;-73
2022/02/26 22:22:46;;;;;;;34.10;15.38;;;;;;;3.88;96.66;102741.56;5084432;57;1141054;-73
2022/02/26 22:27:52;;;;;;;33.73;15.77;;;;;;;3.82;96.82;102747.31;5080879;56;1138910;-73
2022/02/26 22:32:58;;;;;;;41.65;17.65;;;;;;;3.73;97.15;102751.38;5081555;56;1139075;-72
2022/02/26 22:38:08;;;;;;;42.60;17.60;;;;;;;3.71;97.62;102753.15;5080927;56;1139132;-75
